PILOTS ONLINE: 619    ATC ONLINE: 133

KSKA

Fairchild Air Force Base

Location

IATA SKA
City Spokane
Country  United States
Latitude 47° 36' 54" N
Longitude 117° 39' 21" W
Elevation 2461 ft
Type Large Airport

Map

Weather

METAR
2014/09/02 17:58
KSKA 021758Z AUTO 19011G17KT 10SM CLR 20/06 A2983 RMK AO2 SLP096 T01960057 10196 20090 58010
TAF
2014/09/02 11:03
TAF KSKA 0211/0317 18007KT 9999 FEW040 SCT210 QNH2984INS 
      BECMG 0218/0219 22014KT 9999 FEW040 SCT180 QNH2970INS TX22/0221Z TN09/0212Z

Runways

05/23 13901 ft / 200 ft

Outbound flights

Callsign Flying to Pilot ATD/STD ETA Aircraft

Inbound flights

Callsign Flying from Pilot ATD ETA Aircraft